sensor_id;sensor_type;location;lat;lon;timestamp;temperature;humidity
22526;DHT22;11429;50.842;4.386;2023-04-25T00:00:22;9.40;99.90
22526;DHT22;11429;50.842;4.386;2023-04-25T00:02:47;9.40;99.90
22526;DHT22;11429;50.842;4.386;2023-04-25T00:05:13;9.70;99.90
22526;DHT22;11429;50.842;4.386;2023-04-25T00:07:42;9.60;99.90
22526;DHT22;11429;50.842;4.386;2023-04-25T00:10:09;9.50;99.90
22526;DHT22;11429;50.842;4.386;2023-04-25T00:12:36;9.50;99.90
22526;DHT22;11429;50.842;4.386;2023-04-25T00:15:02;9.30;99.90
22526;DHT22;11429;50.842;4.386;2023-04-25T00:17:28;9.30;99.90
22526;DHT22;11429;50.842;4.386;2023-04-25T00:19:54;9.20;99.90
22526;DHT22;11429;50.842;4.386;2023-04-25T00:22:21;8.90;99.90
22526;DHT22;11429;50.842;4.386;2023-04-25T00:24:47;8.90;99.90
22526;DHT22;11429;50.842;4.386;2023-04-25T00:27:12;8.90;99.90
22526;DHT22;11429;50.842;4.386;2023-04-25T00:29:38;8.90;99.90
22526;DHT22;11429;50.842;4.386;2023-04-25T00:32:04;8.80;99.90
22526;DHT22;11429;50.842;4.386;2023-04-25T00:34:29;8.80;99.90
22526;DHT22;11429;50.842;4.386;2023-04-25T00:36:55;8.80;99.90
22526;DHT22;11429;50.842;4.386;2023-04-25T00:39:22;8.80;99.90
22526;DHT22;11429;50.842;4.386;2023-04-25T00:41:48;8.70;99.90
22526;DHT22;11429;50.842;4.386;2023-04-25T00:44:15;8.60;99.90
22526;DHT22;11429;50.842;4.386;2023-04-25T00:46:42;8.60;99.90
22526;DHT22;11429;50.842;4.386;2023-04-25T00:49:08;8.60;99.90
22526;DHT22;11429;50.842;4.386;2023-04-25T00:51:34;8.50;99.90
22526;DHT22;11429;50.842;4.386;2023-04-25T00:54:01;8.50;99.90
22526;DHT22;11429;50.842;4.386;2023-04-25T00:56:27;8.60;99.90
22526;DHT22;11429;50.842;4.386;2023-04-25T00:58:53;8.70;99.90
22526;DHT22;11429;50.842;4.386;2023-04-25T01:01:22;8.80;99.90
22526;DHT22;11429;50.842;4.386;2023-04-25T01:03:49;8.70;99.90
22526;DHT22;11429;50.842;4.386;2023-04-25T01:06:15;8.50;99.90
22526;DHT22;11429;50.842;4.386;2023-04-25T01:08:41;8.40;99.90
22526;DHT22;11429;50.842;4.386;2023-04-25T01:11:07;8.30;99.90
22526;DHT22;11429;50.842;4.386;2023-04-25T01:13:33;8.40;99.90
22526;DHT22;11429;50.842;4.386;2023-04-25T01:16:00;8.40;99.90
22526;DHT22;11429;50.842;4.386;2023-04-25T01:18:26;8.20;99.90
22526;DHT22;11429;50.842;4.386;2023-04-25T01:20:53;8.30;99.90
22526;DHT22;11429;50.842;4.386;2023-04-25T01:23:20;8.40;99.90
22526;DHT22;11429;50.842;4.386;2023-04-25T01:25:47;8.30;99.90
22526;DHT22;11429;50.842;4.386;2023-04-25T01:28:13;8.30;99.90
22526;DHT22;11429;50.842;4.386;2023-04-25T01:30:39;8.30;99.90
22526;DHT22;11429;50.842;4.386;2023-04-25T01:33:07;8.20;99.90
22526;DHT22;11429;50.842;4.386;2023-04-25T01:35:33;8.10;99.90
22526;DHT22;11429;50.842;4.386;2023-04-25T01:37:59;8.20;99.90
22526;DHT22;11429;50.842;4.386;2023-04-25T01:40:25;8.20;99.90
22526;DHT22;11429;50.842;4.386;2023-04-25T01:42:52;8.30;99.90
22526;DHT22;11429;50.842;4.386;2023-04-25T01:45:18;8.30;99.90
22526;DHT22;11429;50.842;4.386;2023-04-25T01:47:44;8.20;99.90
22526;DHT22;11429;50.842;4.386;2023-04-25T01:50:14;8.20;99.90
22526;DHT22;11429;50.842;4.386;2023-04-25T01:52:41;8.20;99.90
22526;DHT22;11429;50.842;4.386;2023-04-25T01:55:07;8.30;99.90
22526;DHT22;11429;50.842;4.386;2023-04-25T01:57:32;8.20;99.90
22526;DHT22;11429;50.842;4.386;2023-04-25T02:00:00;8.20;99.90
22526;DHT22;11429;50.842;4.386;2023-04-25T02:02:26;8.20;99.90
22526;DHT22;11429;50.842;4.386;2023-04-25T02:04:52;8.20;99.90
22526;DHT22;11429;50.842;4.386;2023-04-25T02:07:19;8.10;99.90
22526;DHT22;11429;50.842;4.386;2023-04-25T02:09:45;8.00;99.90
22526;DHT22;11429;50.842;4.386;2023-04-25T02:12:11;8.20;99.90
22526;DHT22;11429;50.842;4.386;2023-04-25T02:14:37;8.10;99.90
22526;DHT22;11429;50.842;4.386;2023-04-25T02:17:02;8.20;99.90
22526;DHT22;11429;50.842;4.386;2023-04-25T02:19:28;8.40;99.90
22526;DHT22;11429;50.842;4.386;2023-04-25T02:21:54;8.50;99.90
22526;DHT22;11429;50.842;4.386;2023-04-25T02:24:20;8.70;99.90
22526;DHT22;11429;50.842;4.386;2023-04-25T02:26:46;8.90;99.90
22526;DHT22;11429;50.842;4.386;2023-04-25T02:29:12;8.80;99.90
22526;DHT22;11429;50.842;4.386;2023-04-25T02:31:38;8.50;99.90
22526;DHT22;11429;50.842;4.386;2023-04-25T02:34:04;8.20;99.90
22526;DHT22;11429;50.842;4.386;2023-04-25T02:36:30;7.90;99.90
22526;DHT22;11429;50.842;4.386;2023-04-25T02:38:59;8.00;99.90
22526;DHT22;11429;50.842;4.386;2023-04-25T02:41:26;7.90;99.90
22526;DHT22;11429;50.842;4.386;2023-04-25T02:43:51;8.00;99.90
22526;DHT22;11429;50.842;4.386;2023-04-25T02:46:17;8.00;99.90
22526;DHT22;11429;50.842;4.386;2023-04-25T02:48:43;8.10;99.90
22526;DHT22;11429;50.842;4.386;2023-04-25T02:51:09;7.90;99.90
22526;DHT22;11429;50.842;4.386;2023-04-25T02:53:35;7.80;99.90
22526;DHT22;11429;50.842;4.386;2023-04-25T02:56:01;7.70;99.90
22526;DHT22;11429;50.842;4.386;2023-04-25T02:58:27;7.70;99.90
22526;DHT22;11429;50.842;4.386;2023-04-25T03:00:53;7.80;99.90
22526;DHT22;11429;50.842;4.386;2023-04-25T03:03:20;7.90;99.90
22526;DHT22;11429;50.842;4.386;2023-04-25T03:05:48;7.80;99.90
22526;DHT22;11429;50.842;4.386;2023-04-25T03:08:14;7.90;99.90
22526;DHT22;11429;50.842;4.386;2023-04-25T03:10:40;7.90;99.90
22526;DHT22;11429;50.842;4.386;2023-04-25T03:13:05;7.80;99.90
22526;DHT22;11429;50.842;4.386;2023-04-25T03:15:31;7.90;99.90
22526;DHT22;11429;50.842;4.386;2023-04-25T03:17:57;7.90;99.90
22526;DHT22;11429;50.842;4.386;2023-04-25T03:20:22;7.80;99.90
22526;DHT22;11429;50.842;4.386;2023-04-25T03:22:48;7.80;99.90
22526;DHT22;11429;50.842;4.386;2023-04-25T03:25:14;7.80;99.90
22526;DHT22;11429;50.842;4.386;2023-04-25T03:27:40;7.80;99.90
22526;DHT22;11429;50.842;4.386;2023-04-25T03:30:06;8.00;99.90
22526;DHT22;11429;50.842;4.386;2023-04-25T03:32:34;7.90;99.90
22526;DHT22;11429;50.842;4.386;2023-04-25T03:35:00;8.00;99.90
22526;DHT22;11429;50.842;4.386;2023-04-25T03:37:26;8.00;99.90
22526;DHT22;11429;50.842;4.386;2023-04-25T03:39:52;7.70;99.90
22526;DHT22;11429;50.842;4.386;2023-04-25T03:42:17;7.70;99.90
22526;DHT22;11429;50.842;4.386;2023-04-25T03:44:43;7.70;99.90
22526;DHT22;11429;50.842;4.386;2023-04-25T03:47:09;7.60;99.90
22526;DHT22;11429;50.842;4.386;2023-04-25T03:49:35;7.80;99.90
22526;DHT22;11429;50.842;4.386;2023-04-25T03:52:01;8.10;99.90
22526;DHT22;11429;50.842;4.386;2023-04-25T03:54:27;7.90;99.90
22526;DHT22;11429;50.842;4.386;2023-04-25T03:56:53;7.90;99.90
22526;DHT22;11429;50.842;4.386;2023-04-25T03:59:19;7.90;99.90
22526;DHT22;11429;50.842;4.386;2023-04-25T04:01:44;7.80;99.90
22526;DHT22;11429;50.842;4.386;2023-04-25T04:04:10;7.80;99.90
22526;DHT22;11429;50.842;4.386;2023-04-25T04:06:35;7.70;99.90
22526;DHT22;11429;50.842;4.386;2023-04-25T04:09:02;7.70;99.90
22526;DHT22;11429;50.842;4.386;2023-04-25T04:11:28;7.70;99.90
22526;DHT22;11429;50.842;4.386;2023-04-25T04:13:54;7.70;99.90
22526;DHT22;11429;50.842;4.386;2023-04-25T04:16:20;7.80;99.90
22526;DHT22;11429;50.842;4.386;2023-04-25T04:18:46;7.80;99.90
22526;DHT22;11429;50.842;4.386;2023-04-25T04:21:11;7.90;99.90
22526;DHT22;11429;50.842;4.386;2023-04-25T04:23:37;8.30;99.90
22526;DHT22;11429;50.842;4.386;2023-04-25T04:26:03;8.70;99.90
22526;DHT22;11429;50.842;4.386;2023-04-25T04:28:29;8.60;99.90
22526;DHT22;11429;50.842;4.386;2023-04-25T04:30:55;8.60;99.90
22526;DHT22;11429;50.842;4.386;2023-04-25T04:33:21;8.60;99.90
22526;DHT22;11429;50.842;4.386;2023-04-25T04:35:49;8.80;99.90
22526;DHT22;11429;50.842;4.386;2023-04-25T04:38:17;8.90;99.90
22526;DHT22;11429;50.842;4.386;2023-04-25T04:40:44;8.60;99.90
22526;DHT22;11429;50.842;4.386;2023-04-25T04:43:10;8.50;99.90
22526;DHT22;11429;50.842;4.386;2023-04-25T04:45:36;8.30;99.90
22526;DHT22;11429;50.842;4.386;2023-04-25T04:48:07;8.60;99.90
22526;DHT22;11429;50.842;4.386;2023-04-25T04:50:33;9.00;99.90
22526;DHT22;11429;50.842;4.386;2023-04-25T04:53:01;9.00;99.90
22526;DHT22;11429;50.842;4.386;2023-04-25T04:55:27;8.30;99.90
22526;DHT22;11429;50.842;4.386;2023-04-25T04:57:53;8.10;99.90
22526;DHT22;11429;50.842;4.386;2023-04-25T05:00:19;8.40;99.90
22526;DHT22;11429;50.842;4.386;2023-04-25T05:02:46;8.80;99.90
22526;DHT22;11429;50.842;4.386;2023-04-25T05:05:11;8.30;99.90
22526;DHT22;11429;50.842;4.386;2023-04-25T05:07:37;7.90;99.90
22526;DHT22;11429;50.842;4.386;2023-04-25T05:10:03;7.90;99.90
22526;DHT22;11429;50.842;4.386;2023-04-25T05:12:29;7.80;99.90
22526;DHT22;11429;50.842;4.386;2023-04-25T05:14:55;7.60;99.90
22526;DHT22;11429;50.842;4.386;2023-04-25T05:17:21;8.00;99.90
22526;DHT22;11429;50.842;4.386;2023-04-25T05:19:47;8.30;99.90
22526;DHT22;11429;50.842;4.386;2023-04-25T05:22:12;8.30;99.90
22526;DHT22;11429;50.842;4.386;2023-04-25T05:24:38;8.20;99.90
22526;DHT22;11429;50.842;4.386;2023-04-25T05:27:04;8.20;99.90
22526;DHT22;11429;50.842;4.386;2023-04-25T05:29:31;8.50;99.90
22526;DHT22;11429;50.842;4.386;2023-04-25T05:31:56;8.80;99.90
22526;DHT22;11429;50.842;4.386;2023-04-25T05:34:22;9.00;99.90
22526;DHT22;11429;50.842;4.386;2023-04-25T05:36:48;9.10;99.90
22526;DHT22;11429;50.842;4.386;2023-04-25T05:39:15;9.30;99.90
22526;DHT22;11429;50.842;4.386;2023-04-25T05:41:42;8.80;99.90
22526;DHT22;11429;50.842;4.386;2023-04-25T05:44:07;8.70;99.90
22526;DHT22;11429;50.842;4.386;2023-04-25T05:46:33;8.60;99.90
22526;DHT22;11429;50.842;4.386;2023-04-25T05:48:59;8.60;99.90
22526;DHT22;11429;50.842;4.386;2023-04-25T05:51:25;8.70;99.90
22526;DHT22;11429;50.842;4.386;2023-04-25T05:53:51;8.60;99.90
22526;DHT22;11429;50.842;4.386;2023-04-25T05:56:17;8.60;99.90
22526;DHT22;11429;50.842;4.386;2023-04-25T05:58:42;8.30;99.90
22526;DHT22;11429;50.842;4.386;2023-04-25T06:01:08;8.60;99.90
22526;DHT22;11429;50.842;4.386;2023-04-25T06:03:34;8.90;99.90
22526;DHT22;11429;50.842;4.386;2023-04-25T06:06:00;9.00;99.90
22526;DHT22;11429;50.842;4.386;2023-04-25T06:08:26;8.90;99.90
22526;DHT22;11429;50.842;4.386;2023-04-25T06:10:52;8.80;99.90
22526;DHT22;11429;50.842;4.386;2023-04-25T06:13:17;9.00;99.90
22526;DHT22;11429;50.842;4.386;2023-04-25T06:15:43;8.80;99.90
22526;DHT22;11429;50.842;4.386;2023-04-25T06:18:09;8.40;99.90
22526;DHT22;11429;50.842;4.386;2023-04-25T06:20:34;8.20;99.90
22526;DHT22;11429;50.842;4.386;2023-04-25T06:23:00;8.30;99.90
22526;DHT22;11429;50.842;4.386;2023-04-25T06:25:26;8.30;99.90
22526;DHT22;11429;50.842;4.386;2023-04-25T06:27:51;8.20;99.90
22526;DHT22;11429;50.842;4.386;2023-04-25T06:30:17;8.30;99.90
22526;DHT22;11429;50.842;4.386;2023-04-25T06:32:47;8.20;99.90
22526;DHT22;11429;50.842;4.386;2023-04-25T06:35:13;8.20;99.90
22526;DHT22;11429;50.842;4.386;2023-04-25T06:37:39;8.30;99.90
22526;DHT22;11429;50.842;4.386;2023-04-25T06:40:05;8.40;99.90
22526;DHT22;11429;50.842;4.386;2023-04-25T06:42:34;8.50;99.90
22526;DHT22;11429;50.842;4.386;2023-04-25T06:44:59;8.40;99.90
22526;DHT22;11429;50.842;4.386;2023-04-25T06:47:25;8.70;99.90
22526;DHT22;11429;50.842;4.386;2023-04-25T06:49:51;8.60;99.90
22526;DHT22;11429;50.842;4.386;2023-04-25T06:52:17;8.80;99.90
22526;DHT22;11429;50.842;4.386;2023-04-25T06:54:43;9.10;99.90
22526;DHT22;11429;50.842;4.386;2023-04-25T06:57:09;9.50;99.90
22526;DHT22;11429;50.842;4.386;2023-04-25T06:59:35;9.20;99.90
22526;DHT22;11429;50.842;4.386;2023-04-25T07:02:01;8.80;99.90
22526;DHT22;11429;50.842;4.386;2023-04-25T07:04:26;9.10;99.90
22526;DHT22;11429;50.842;4.386;2023-04-25T07:06:52;9.20;99.90
22526;DHT22;11429;50.842;4.386;2023-04-25T07:09:18;8.90;99.90
22526;DHT22;11429;50.842;4.386;2023-04-25T07:11:44;8.80;99.90
22526;DHT22;11429;50.842;4.386;2023-04-25T07:14:10;8.80;99.90
22526;DHT22;11429;50.842;4.386;2023-04-25T07:16:36;8.90;99.90
22526;DHT22;11429;50.842;4.386;2023-04-25T07:19:01;8.80;99.90
22526;DHT22;11429;50.842;4.386;2023-04-25T07:21:27;8.80;99.90
22526;DHT22;11429;50.842;4.386;2023-04-25T07:23:53;8.80;99.90
22526;DHT22;11429;50.842;4.386;2023-04-25T07:26:19;8.80;99.90
22526;DHT22;11429;50.842;4.386;2023-04-25T07:28:45;8.90;99.90
22526;DHT22;11429;50.842;4.386;2023-04-25T07:31:15;9.30;99.90
22526;DHT22;11429;50.842;4.386;2023-04-25T07:33:42;9.60;99.90
22526;DHT22;11429;50.842;4.386;2023-04-25T07:36:08;9.40;99.90
22526;DHT22;11429;50.842;4.386;2023-04-25T07:38:34;9.20;99.90
22526;DHT22;11429;50.842;4.386;2023-04-25T07:41:00;9.30;99.90
22526;DHT22;11429;50.842;4.386;2023-04-25T07:43:25;9.50;99.90
22526;DHT22;11429;50.842;4.386;2023-04-25T07:45:51;9.70;99.90
22526;DHT22;11429;50.842;4.386;2023-04-25T07:48:17;10.20;99.90
22526;DHT22;11429;50.842;4.386;2023-04-25T07:50:46;10.00;99.90
22526;DHT22;11429;50.842;4.386;2023-04-25T07:53:13;9.90;99.90
22526;DHT22;11429;50.842;4.386;2023-04-25T07:55:38;10.10;99.90
22526;DHT22;11429;50.842;4.386;2023-04-25T07:58:09;10.20;99.90
22526;DHT22;11429;50.842;4.386;2023-04-25T08:00:35;10.20;99.90
22526;DHT22;11429;50.842;4.386;2023-04-25T08:03:01;10.20;99.90
22526;DHT22;11429;50.842;4.386;2023-04-25T08:05:28;10.30;99.90
22526;DHT22;11429;50.842;4.386;2023-04-25T08:07:54;10.40;99.90
22526;DHT22;11429;50.842;4.386;2023-04-25T08:10:20;10.30;99.90
22526;DHT22;11429;50.842;4.386;2023-04-25T08:12:46;10.30;99.90
22526;DHT22;11429;50.842;4.386;2023-04-25T08:15:11;10.30;99.90
22526;DHT22;11429;50.842;4.386;2023-04-25T08:17:39;10.50;99.90
22526;DHT22;11429;50.842;4.386;2023-04-25T08:20:05;10.60;99.90
22526;DHT22;11429;50.842;4.386;2023-04-25T08:22:31;11.10;99.90
22526;DHT22;11429;50.842;4.386;2023-04-25T08:24:57;11.60;99.90
22526;DHT22;11429;50.842;4.386;2023-04-25T08:27:22;12.10;99.90
22526;DHT22;11429;50.842;4.386;2023-04-25T08:29:49;11.90;99.90
22526;DHT22;11429;50.842;4.386;2023-04-25T08:32:15;11.10;99.90
22526;DHT22;11429;50.842;4.386;2023-04-25T08:34:41;10.60;99.90
22526;DHT22;11429;50.842;4.386;2023-04-25T08:37:08;10.50;99.90
22526;DHT22;11429;50.842;4.386;2023-04-25T08:39:36;10.50;99.90
22526;DHT22;11429;50.842;4.386;2023-04-25T08:42:04;10.80;99.90
22526;DHT22;11429;50.842;4.386;2023-04-25T08:44:33;11.00;99.90
22526;DHT22;11429;50.842;4.386;2023-04-25T08:47:02;11.30;99.90
22526;DHT22;11429;50.842;4.386;2023-04-25T08:49:30;11.40;99.90
22526;DHT22;11429;50.842;4.386;2023-04-25T08:52:00;11.30;99.90
22526;DHT22;11429;50.842;4.386;2023-04-25T08:54:27;11.60;99.90
22526;DHT22;11429;50.842;4.386;2023-04-25T08:56:55;12.30;99.90
22526;DHT22;11429;50.842;4.386;2023-04-25T08:59:23;12.90;99.90
22526;DHT22;11429;50.842;4.386;2023-04-25T09:01:52;13.00;99.90
22526;DHT22;11429;50.842;4.386;2023-04-25T09:04:18;12.90;99.90
22526;DHT22;11429;50.842;4.386;2023-04-25T09:06:46;12.50;99.90
22526;DHT22;11429;50.842;4.386;2023-04-25T09:09:12;12.00;99.90
22526;DHT22;11429;50.842;4.386;2023-04-25T09:11:37;11.60;99.90
22526;DHT22;11429;50.842;4.386;2023-04-25T09:14:20;11.60;99.90
22526;DHT22;11429;50.842;4.386;2023-04-25T09:19:22;11.80;99.90
22526;DHT22;11429;50.842;4.386;2023-04-25T09:21:54;11.70;99.90
22526;DHT22;11429;50.842;4.386;2023-04-25T09:24:38;11.80;99.90
22526;DHT22;11429;50.842;4.386;2023-04-25T09:27:09;12.00;99.90
22526;DHT22;11429;50.842;4.386;2023-04-25T09:29:37;12.10;99.90
22526;DHT22;11429;50.842;4.386;2023-04-25T09:34:42;10.90;99.90
22526;DHT22;11429;50.842;4.386;2023-04-25T09:37:10;10.80;99.90
22526;DHT22;11429;50.842;4.386;2023-04-25T09:39:37;10.80;99.90
22526;DHT22;11429;50.842;4.386;2023-04-25T09:42:04;11.30;99.90
22526;DHT22;11429;50.842;4.386;2023-04-25T09:44:30;12.20;99.90
22526;DHT22;11429;50.842;4.386;2023-04-25T09:46:56;12.50;99.90
22526;DHT22;11429;50.842;4.386;2023-04-25T09:49:22;13.50;99.90
22526;DHT22;11429;50.842;4.386;2023-04-25T09:51:55;13.80;99.90
22526;DHT22;11429;50.842;4.386;2023-04-25T09:54:23;15.20;99.90
22526;DHT22;11429;50.842;4.386;2023-04-25T09:56:51;15.30;99.90
22526;DHT22;11429;50.842;4.386;2023-04-25T09:59:20;16.00;99.90
22526;DHT22;11429;50.842;4.386;2023-04-25T10:01:48;18.10;99.90
22526;DHT22;11429;50.842;4.386;2023-04-25T10:04:22;18.70;99.90
22526;DHT22;11429;50.842;4.386;2023-04-25T10:06:49;18.50;99.90
22526;DHT22;11429;50.842;4.386;2023-04-25T10:09:20;18.40;99.90
22526;DHT22;11429;50.842;4.386;2023-04-25T10:11:47;17.20;99.90
22526;DHT22;11429;50.842;4.386;2023-04-25T10:14:16;16.10;99.90
22526;DHT22;11429;50.842;4.386;2023-04-25T10:16:42;15.70;99.90
22526;DHT22;11429;50.842;4.386;2023-04-25T10:19:09;16.90;99.90
22526;DHT22;11429;50.842;4.386;2023-04-25T10:21:42;15.90;99.90
22526;DHT22;11429;50.842;4.386;2023-04-25T10:24:09;16.20;99.90
22526;DHT22;11429;50.842;4.386;2023-04-25T10:26:35;17.90;99.90
22526;DHT22;11429;50.842;4.386;2023-04-25T10:29:02;17.50;99.90
22526;DHT22;11429;50.842;4.386;2023-04-25T10:31:32;18.10;99.90
22526;DHT22;11429;50.842;4.386;2023-04-25T10:33:59;18.40;99.90
22526;DHT22;11429;50.842;4.386;2023-04-25T10:36:26;18.70;99.90
22526;DHT22;11429;50.842;4.386;2023-04-25T10:38:58;18.20;99.90
22526;DHT22;11429;50.842;4.386;2023-04-25T10:41:32;17.70;99.90
22526;DHT22;11429;50.842;4.386;2023-04-25T10:44:10;18.40;99.90
22526;DHT22;11429;50.842;4.386;2023-04-25T10:46:36;16.80;99.90
22526;DHT22;11429;50.842;4.386;2023-04-25T10:49:03;16.50;99.90
22526;DHT22;11429;50.842;4.386;2023-04-25T10:51:31;16.80;99.90
22526;DHT22;11429;50.842;4.386;2023-04-25T10:54:04;15.40;99.90
22526;DHT22;11429;50.842;4.386;2023-04-25T10:56:37;15.20;99.90
22526;DHT22;11429;50.842;4.386;2023-04-25T10:59:18;15.90;99.90
22526;DHT22;11429;50.842;4.386;2023-04-25T11:01:46;15.80;99.90
22526;DHT22;11429;50.842;4.386;2023-04-25T11:04:29;15.80;99.90
22526;DHT22;11429;50.842;4.386;2023-04-25T11:07:18;14.10;99.90
22526;DHT22;11429;50.842;4.386;2023-04-25T11:09:49;13.00;99.90
22526;DHT22;11429;50.842;4.386;2023-04-25T11:12:15;12.50;99.90
22526;DHT22;11429;50.842;4.386;2023-04-25T11:14:41;12.50;99.90
22526;DHT22;11429;50.842;4.386;2023-04-25T11:17:07;12.20;99.90
22526;DHT22;11429;50.842;4.386;2023-04-25T11:19:34;12.10;99.90
22526;DHT22;11429;50.842;4.386;2023-04-25T11:22:03;12.20;99.90
22526;DHT22;11429;50.842;4.386;2023-04-25T11:24:32;12.30;99.90
22526;DHT22;11429;50.842;4.386;2023-04-25T11:26:59;12.40;99.90
22526;DHT22;11429;50.842;4.386;2023-04-25T11:29:28;12.40;99.90
22526;DHT22;11429;50.842;4.386;2023-04-25T11:31:55;12.80;99.90
22526;DHT22;11429;50.842;4.386;2023-04-25T11:34:25;12.90;99.90
22526;DHT22;11429;50.842;4.386;2023-04-25T11:36:52;13.20;99.90
22526;DHT22;11429;50.842;4.386;2023-04-25T11:39:21;13.90;99.90
22526;DHT22;11429;50.842;4.386;2023-04-25T11:41:47;14.30;99.90
22526;DHT22;11429;50.842;4.386;2023-04-25T11:44:16;14.50;99.90
22526;DHT22;11429;50.842;4.386;2023-04-25T11:46:42;14.60;99.90
22526;DHT22;11429;50.842;4.386;2023-04-25T11:49:08;15.00;99.90
22526;DHT22;11429;50.842;4.386;2023-04-25T11:51:40;14.00;99.90
22526;DHT22;11429;50.842;4.386;2023-04-25T11:54:07;14.50;99.90
22526;DHT22;11429;50.842;4.386;2023-04-25T11:56:33;14.10;99.90
22526;DHT22;11429;50.842;4.386;2023-04-25T11:59:03;13.70;99.90
22526;DHT22;11429;50.842;4.386;2023-04-25T12:03:57;14.90;99.90
22526;DHT22;11429;50.842;4.386;2023-04-25T12:06:27;15.00;99.90
22526;DHT22;11429;50.842;4.386;2023-04-25T12:09:04;14.80;99.90
22526;DHT22;11429;50.842;4.386;2023-04-25T12:11:44;14.80;99.90
22526;DHT22;11429;50.842;4.386;2023-04-25T12:14:10;14.50;99.90
22526;DHT22;11429;50.842;4.386;2023-04-25T12:16:45;14.20;99.90
22526;DHT22;11429;50.842;4.386;2023-04-25T12:19:15;14.10;99.90
22526;DHT22;11429;50.842;4.386;2023-04-25T12:21:41;14.30;99.90
22526;DHT22;11429;50.842;4.386;2023-04-25T12:24:15;14.70;99.90
22526;DHT22;11429;50.842;4.386;2023-04-25T12:26:49;14.20;99.90
22526;DHT22;11429;50.842;4.386;2023-04-25T12:29:25;13.70;99.90
22526;DHT22;11429;50.842;4.386;2023-04-25T12:31:52;13.10;99.90
22526;DHT22;11429;50.842;4.386;2023-04-25T12:34:19;12.70;99.90
22526;DHT22;11429;50.842;4.386;2023-04-25T12:36:45;12.50;99.90
22526;DHT22;11429;50.842;4.386;2023-04-25T12:39:15;12.70;99.90
22526;DHT22;11429;50.842;4.386;2023-04-25T12:41:41;13.30;99.90
22526;DHT22;11429;50.842;4.386;2023-04-25T12:44:07;13.80;99.90
22526;DHT22;11429;50.842;4.386;2023-04-25T12:46:33;12.90;99.90
22526;DHT22;11429;50.842;4.386;2023-04-25T12:48:58;12.90;99.90
22526;DHT22;11429;50.842;4.386;2023-04-25T12:51:25;13.20;99.90
22526;DHT22;11429;50.842;4.386;2023-04-25T12:53:53;13.50;99.90
22526;DHT22;11429;50.842;4.386;2023-04-25T12:56:19;13.70;99.90
22526;DHT22;11429;50.842;4.386;2023-04-25T12:58:45;13.50;99.90
22526;DHT22;11429;50.842;4.386;2023-04-25T13:01:12;13.20;99.90
22526;DHT22;11429;50.842;4.386;2023-04-25T13:03:39;13.10;99.90
22526;DHT22;11429;50.842;4.386;2023-04-25T13:06:06;13.20;99.90
22526;DHT22;11429;50.842;4.386;2023-04-25T13:08:32;13.10;99.90
22526;DHT22;11429;50.842;4.386;2023-04-25T13:10:58;13.10;99.90
22526;DHT22;11429;50.842;4.386;2023-04-25T13:13:23;13.10;99.90
22526;DHT22;11429;50.842;4.386;2023-04-25T13:15:49;13.10;99.90
22526;DHT22;11429;50.842;4.386;2023-04-25T13:18:15;12.80;99.90
22526;DHT22;11429;50.842;4.386;2023-04-25T13:20:41;12.90;99.90
22526;DHT22;11429;50.842;4.386;2023-04-25T13:23:06;13.40;99.90
22526;DHT22;11429;50.842;4.386;2023-04-25T13:25:32;13.80;99.90
22526;DHT22;11429;50.842;4.386;2023-04-25T13:27:58;13.50;99.90
22526;DHT22;11429;50.842;4.386;2023-04-25T13:30:24;13.10;99.90
22526;DHT22;11429;50.842;4.386;2023-04-25T13:32:49;13.10;99.90
22526;DHT22;11429;50.842;4.386;2023-04-25T13:35:16;13.20;99.90
22526;DHT22;11429;50.842;4.386;2023-04-25T13:37:42;13.30;99.90
22526;DHT22;11429;50.842;4.386;2023-04-25T13:40:09;13.40;99.90
22526;DHT22;11429;50.842;4.386;2023-04-25T13:42:37;13.30;99.90
22526;DHT22;11429;50.842;4.386;2023-04-25T13:45:04;13.50;99.90
22526;DHT22;11429;50.842;4.386;2023-04-25T13:47:29;13.70;99.90
22526;DHT22;11429;50.842;4.386;2023-04-25T13:49:56;13.80;99.90
22526;DHT22;11429;50.842;4.386;2023-04-25T13:52:22;14.60;99.90
22526;DHT22;11429;50.842;4.386;2023-04-25T13:54:49;14.80;99.90
22526;DHT22;11429;50.842;4.386;2023-04-25T13:57:15;14.90;99.90
22526;DHT22;11429;50.842;4.386;2023-04-25T13:59:41;14.30;99.90
22526;DHT22;11429;50.842;4.386;2023-04-25T14:02:07;13.80;99.90
22526;DHT22;11429;50.842;4.386;2023-04-25T14:04:33;13.40;99.90
22526;DHT22;11429;50.842;4.386;2023-04-25T14:06:59;13.00;99.90
22526;DHT22;11429;50.842;4.386;2023-04-25T14:09:25;12.50;99.90
22526;DHT22;11429;50.842;4.386;2023-04-25T14:11:52;12.40;99.90
22526;DHT22;11429;50.842;4.386;2023-04-25T14:14:19;12.10;99.90
22526;DHT22;11429;50.842;4.386;2023-04-25T14:16:45;12.20;99.90
22526;DHT22;11429;50.842;4.386;2023-04-25T14:19:11;12.10;99.90
22526;DHT22;11429;50.842;4.386;2023-04-25T14:21:36;12.10;99.90
22526;DHT22;11429;50.842;4.386;2023-04-25T14:24:02;12.40;99.90
22526;DHT22;11429;50.842;4.386;2023-04-25T14:26:28;12.40;99.90
22526;DHT22;11429;50.842;4.386;2023-04-25T14:28:54;12.50;99.90
22526;DHT22;11429;50.842;4.386;2023-04-25T14:31:19;12.50;99.90
22526;DHT22;11429;50.842;4.386;2023-04-25T14:33:46;12.30;99.90
22526;DHT22;11429;50.842;4.386;2023-04-25T14:36:11;12.30;99.90
22526;DHT22;11429;50.842;4.386;2023-04-25T14:38:38;12.10;99.90
22526;DHT22;11429;50.842;4.386;2023-04-25T14:41:04;12.20;99.90
22526;DHT22;11429;50.842;4.386;2023-04-25T14:43:29;12.30;99.90
22526;DHT22;11429;50.842;4.386;2023-04-25T14:45:55;12.10;99.90
22526;DHT22;11429;50.842;4.386;2023-04-25T14:48:21;12.30;99.90
22526;DHT22;11429;50.842;4.386;2023-04-25T14:50:46;12.60;99.90
22526;DHT22;11429;50.842;4.386;2023-04-25T14:53:12;12.70;99.90
22526;DHT22;11429;50.842;4.386;2023-04-25T14:55:38;12.80;99.90
22526;DHT22;11429;50.842;4.386;2023-04-25T14:58:04;12.70;99.90
22526;DHT22;11429;50.842;4.386;2023-04-25T15:00:30;12.70;99.90
22526;DHT22;11429;50.842;4.386;2023-04-25T15:02:57;12.70;99.90
22526;DHT22;11429;50.842;4.386;2023-04-25T15:05:23;12.60;99.90
22526;DHT22;11429;50.842;4.386;2023-04-25T15:07:49;12.80;99.90
22526;DHT22;11429;50.842;4.386;2023-04-25T15:10:16;12.90;99.90
22526;DHT22;11429;50.842;4.386;2023-04-25T15:12:46;13.00;99.90
22526;DHT22;11429;50.842;4.386;2023-04-25T15:15:12;12.90;99.90
22526;DHT22;11429;50.842;4.386;2023-04-25T15:17:46;13.00;99.90
22526;DHT22;11429;50.842;4.386;2023-04-25T15:20:13;13.20;99.90
22526;DHT22;11429;50.842;4.386;2023-04-25T15:22:40;12.90;99.90
22526;DHT22;11429;50.842;4.386;2023-04-25T15:25:10;12.60;99.90
22526;DHT22;11429;50.842;4.386;2023-04-25T15:27:36;12.60;99.90
22526;DHT22;11429;50.842;4.386;2023-04-25T15:30:06;12.60;99.90
22526;DHT22;11429;50.842;4.386;2023-04-25T15:32:33;12.50;99.90
22526;DHT22;11429;50.842;4.386;2023-04-25T15:35:01;12.50;99.90
22526;DHT22;11429;50.842;4.386;2023-04-25T15:37:28;12.40;99.90
22526;DHT22;11429;50.842;4.386;2023-04-25T15:40:05;12.10;99.90
22526;DHT22;11429;50.842;4.386;2023-04-25T15:42:45;12.00;99.90